createdAt,value
2023-03-05T00:02:24.194Z,81.90
2023-03-05T00:04:51.993Z,82.10
2023-03-05T00:07:19.789Z,82.00
2023-03-05T00:12:19.288Z,81.70
2023-03-05T00:14:47.061Z,81.70
2023-03-05T00:17:14.845Z,81.60
2023-03-05T00:19:43.960Z,81.70
2023-03-05T00:22:11.758Z,82.10
2023-03-05T00:24:39.636Z,82.20
2023-03-05T00:27:07.510Z,81.90
2023-03-05T00:29:35.298Z,81.90
2023-03-05T00:32:03.207Z,81.80
2023-03-05T00:34:31.670Z,81.90
2023-03-05T00:37:00.797Z,82.00
2023-03-05T00:39:29.040Z,82.20
2023-03-05T00:41:56.837Z,82.40
2023-03-05T00:44:25.262Z,82.60
2023-03-05T00:46:53.147Z,82.50
2023-03-05T00:49:21.234Z,82.60
2023-03-05T00:51:49.068Z,82.50
2023-03-05T00:54:18.356Z,82.30
2023-03-05T00:56:47.377Z,82.10
2023-03-05T00:59:15.207Z,81.90
2023-03-05T01:01:43.070Z,82.20
2023-03-05T01:04:10.922Z,81.90
2023-03-05T01:06:42.704Z,81.90
2023-03-05T01:09:10.546Z,81.80
2023-03-05T01:11:39.691Z,81.70
2023-03-05T01:14:07.548Z,82.10
2023-03-05T01:16:35.428Z,82.30
2023-03-05T01:19:03.228Z,82.40
2023-03-05T01:21:31.368Z,82.50
2023-03-05T01:23:59.245Z,82.70
2023-03-05T01:26:27.061Z,82.90
2023-03-05T01:28:56.260Z,83.10
2023-03-05T01:31:24.257Z,83.30
2023-03-05T01:33:53.209Z,83.70
2023-03-05T01:36:25.082Z,83.70
2023-03-05T01:38:53.545Z,83.60
2023-03-05T01:41:22.024Z,83.90
2023-03-05T01:43:52.864Z,84.20
2023-03-05T01:46:31.693Z,84.10
2023-03-05T01:49:05.046Z,83.70
2023-03-05T01:51:39.078Z,84.20
2023-03-05T01:54:08.330Z,84.20
2023-03-05T01:56:36.896Z,84.30
2023-03-05T01:59:05.024Z,83.70
2023-03-05T02:01:40.414Z,84.00
2023-03-05T02:04:09.960Z,84.30
2023-03-05T02:06:38.907Z,84.20
2023-03-05T02:09:06.770Z,84.10
2023-03-05T02:11:35.342Z,84.10
2023-03-05T02:14:04.250Z,84.40
2023-03-05T02:16:36.766Z,84.00
2023-03-05T02:19:08.534Z,84.10
2023-03-05T02:21:43.618Z,83.80
2023-03-05T02:24:13.689Z,83.70
2023-03-05T02:26:43.181Z,83.60
2023-03-05T02:29:14.110Z,83.70
2023-03-05T02:31:42.028Z,83.80
2023-03-05T02:34:09.880Z,84.00
2023-03-05T02:36:37.673Z,84.30
2023-03-05T02:39:07.352Z,84.10
2023-03-05T02:41:35.136Z,84.10
2023-03-05T02:44:02.994Z,84.00
2023-03-05T02:46:30.826Z,84.20
2023-03-05T02:48:58.617Z,84.20
2023-03-05T02:51:26.417Z,84.10
2023-03-05T02:53:54.252Z,84.10
2023-03-05T02:56:23.454Z,83.90
2023-03-05T02:58:51.268Z,83.90
2023-03-05T03:01:19.102Z,83.40
2023-03-05T03:03:46.963Z,83.60
2023-03-05T03:06:14.777Z,83.20
2023-03-05T03:08:42.594Z,83.10
2023-03-05T03:11:12.530Z,83.30
2023-03-05T03:13:41.809Z,83.10
2023-03-05T03:16:13.046Z,83.50
2023-03-05T03:18:41.028Z,83.60
2023-03-05T03:21:08.881Z,83.30
2023-03-05T03:23:36.695Z,83.00
2023-03-05T03:26:04.549Z,82.70
2023-03-05T03:28:32.466Z,82.40
2023-03-05T03:31:01.673Z,82.30
2023-03-05T03:33:29.496Z,82.20
2023-03-05T03:35:57.304Z,82.20
2023-03-05T03:38:25.141Z,82.10
2023-03-05T03:40:52.957Z,82.10
2023-03-05T03:43:20.804Z,82.30
2023-03-05T03:45:48.742Z,82.60
2023-03-05T03:48:18.014Z,82.90
2023-03-05T03:50:45.888Z,82.80
2023-03-05T03:53:14.391Z,83.30
2023-03-05T03:55:43.941Z,83.20
2023-03-05T03:58:12.069Z,83.00
2023-03-05T04:00:41.563Z,83.30
2023-03-05T04:03:09.781Z,83.50
2023-03-05T04:05:38.928Z,83.60
2023-03-05T04:08:11.886Z,83.60
2023-03-05T04:10:39.927Z,83.60
2023-03-05T04:13:08.192Z,83.60
2023-03-05T04:15:36.211Z,83.50
2023-03-05T04:18:04.018Z,83.60
2023-03-05T04:20:31.835Z,83.60
2023-03-05T04:23:00.999Z,83.70
2023-03-05T04:25:28.796Z,83.90
2023-03-05T04:27:56.635Z,83.90
2023-03-05T04:30:24.443Z,83.80
2023-03-05T04:32:52.235Z,83.80
2023-03-05T04:35:20.192Z,83.60
2023-03-05T04:37:48.285Z,83.60
2023-03-05T04:40:18.512Z,83.20
2023-03-05T04:42:46.461Z,83.10
2023-03-05T04:45:14.349Z,82.90
2023-03-05T04:47:42.135Z,82.90
2023-03-05T04:50:12.107Z,82.90
2023-03-05T04:52:40.905Z,82.80
2023-03-05T04:55:09.951Z,82.80
2023-03-05T04:57:39.773Z,82.90
2023-03-05T05:00:14.060Z,82.80
2023-03-05T05:02:42.483Z,82.70
2023-03-05T05:05:11.642Z,82.60
2023-03-05T05:07:39.501Z,82.40
2023-03-05T05:10:08.274Z,82.30
2023-03-05T05:12:36.329Z,81.70
2023-03-05T05:15:07.971Z,81.70
2023-03-05T05:17:36.498Z,81.50
2023-03-05T05:20:06.509Z,81.20
2023-03-05T05:22:35.687Z,81.30
2023-03-05T05:25:04.205Z,81.40
2023-03-05T05:27:32.044Z,81.60
2023-03-05T05:29:59.984Z,81.80
2023-03-05T05:32:29.592Z,81.80
2023-03-05T05:34:57.982Z,82.10
2023-03-05T05:37:26.938Z,82.10
2023-03-05T05:39:54.774Z,81.90
2023-03-05T05:42:25.640Z,82.20
2023-03-05T05:44:55.389Z,82.40
2023-03-05T05:47:23.285Z,82.40
2023-03-05T05:49:52.440Z,82.20
2023-03-05T05:52:20.254Z,82.50
2023-03-05T05:54:48.231Z,82.90
2023-03-05T05:57:16.806Z,82.50
2023-03-05T05:59:44.650Z,82.70
2023-03-05T06:02:12.710Z,83.00
2023-03-05T06:04:40.715Z,82.90
2023-03-05T06:07:09.840Z,82.90
2023-03-05T06:09:37.786Z,82.90
2023-03-05T06:12:06.655Z,82.80
2023-03-05T06:14:34.526Z,82.40
2023-03-05T06:17:02.314Z,81.90
2023-03-05T06:19:30.134Z,81.50
2023-03-05T06:21:58.258Z,81.70
2023-03-05T06:24:27.537Z,81.70
2023-03-05T06:26:55.339Z,81.50
2023-03-05T06:29:23.154Z,81.80
2023-03-05T06:31:50.940Z,82.00
2023-03-05T06:34:18.757Z,82.00
2023-03-05T06:36:46.562Z,82.00
2023-03-05T06:39:14.426Z,82.30
2023-03-05T06:41:44.608Z,81.90
2023-03-05T06:44:12.524Z,82.00
2023-03-05T06:46:40.640Z,82.10
2023-03-05T06:49:09.503Z,82.50
2023-03-05T06:51:38.988Z,82.70
2023-03-05T06:54:08.733Z,83.20
2023-03-05T06:56:38.404Z,83.50
2023-03-05T06:59:08.102Z,83.90
2023-03-05T07:01:36.190Z,84.00
2023-03-05T07:04:04.400Z,84.20
2023-03-05T07:06:34.843Z,84.30
2023-03-05T07:09:04.009Z,84.50
2023-03-05T07:11:32.623Z,85.00
2023-03-05T07:14:00.658Z,84.70
2023-03-05T07:16:31.748Z,85.30
2023-03-05T07:19:03.911Z,85.30
2023-03-05T07:21:33.654Z,85.10
2023-03-05T07:24:03.286Z,85.10
2023-03-05T07:26:33.327Z,84.90
2023-03-05T07:29:02.095Z,84.70
2023-03-05T07:31:32.068Z,84.70
2023-03-05T07:34:01.786Z,84.50
2023-03-05T07:36:29.880Z,83.60
2023-03-05T07:38:59.171Z,83.70
2023-03-05T07:41:27.068Z,84.50
2023-03-05T07:43:56.013Z,84.30
2023-03-05T07:46:26.416Z,83.90
2023-03-05T07:48:56.645Z,84.30
2023-03-05T07:51:25.898Z,84.20
2023-03-05T07:53:55.226Z,84.10
2023-03-05T07:56:24.573Z,84.20
2023-03-05T07:58:52.518Z,83.80
2023-03-05T08:01:20.703Z,83.60
2023-03-05T08:03:48.595Z,82.70
2023-03-05T08:06:18.244Z,82.60
2023-03-05T08:08:46.042Z,83.10
2023-03-05T08:11:15.406Z,82.90
2023-03-05T08:13:44.200Z,82.60
2023-03-05T08:16:15.770Z,82.60
2023-03-05T08:18:43.777Z,82.60
2023-03-05T08:21:19.168Z,82.00
2023-03-05T08:23:47.462Z,82.30
2023-03-05T08:26:16.653Z,82.30
2023-03-05T08:28:44.505Z,82.30
2023-03-05T08:31:13.180Z,82.40
2023-03-05T08:33:41.664Z,81.80
2023-03-05T08:36:10.042Z,80.20
2023-03-05T08:38:39.294Z,81.20
2023-03-05T08:41:08.731Z,81.80
2023-03-05T08:43:36.547Z,80.40
2023-03-05T08:46:04.995Z,80.30
2023-03-05T08:48:33.350Z,79.70
2023-03-05T08:51:06.535Z,79.60
2023-03-05T08:53:34.366Z,79.60
2023-03-05T08:56:03.653Z,79.10
2023-03-05T08:58:31.677Z,79.60
2023-03-05T09:00:59.758Z,79.50
2023-03-05T09:03:27.972Z,79.50
2023-03-05T09:06:00.508Z,78.90
2023-03-05T09:08:28.956Z,79.30
2023-03-05T09:10:56.808Z,79.00
2023-03-05T09:13:26.000Z,79.50
2023-03-05T09:15:57.677Z,79.90
2023-03-05T09:18:25.897Z,79.50
2023-03-05T09:20:54.014Z,79.20
2023-03-05T09:23:22.271Z,79.60
2023-03-05T09:25:50.105Z,78.30
2023-03-05T09:28:18.342Z,79.30
2023-03-05T09:30:47.587Z,79.30
2023-03-05T09:33:15.438Z,78.40
2023-03-05T09:35:43.284Z,76.20
2023-03-05T09:38:11.111Z,77.40
2023-03-05T09:40:46.733Z,77.10
2023-03-05T09:43:26.762Z,76.70
2023-03-05T09:46:08.319Z,77.60
2023-03-05T09:48:49.433Z,76.80
2023-03-05T09:51:23.209Z,76.80
2023-03-05T09:53:57.033Z,76.80
2023-03-05T09:56:28.857Z,77.50
2023-03-05T09:59:03.519Z,75.70
2023-03-05T10:01:39.789Z,76.40
2023-03-05T10:04:12.985Z,75.90
2023-03-05T10:06:49.758Z,76.20
2023-03-05T10:09:24.939Z,75.80
2023-03-05T10:11:57.065Z,74.80
2023-03-05T10:14:28.807Z,73.70
2023-03-05T10:17:31.889Z,74.60
2023-03-05T10:20:24.116Z,73.90
2023-03-05T10:23:05.259Z,73.30
2023-03-05T10:25:47.940Z,73.90
2023-03-05T10:28:20.125Z,71.60
2023-03-05T10:31:03.929Z,71.20
2023-03-05T10:33:41.270Z,71.80
2023-03-05T10:36:46.809Z,70.40
2023-03-05T10:39:43.165Z,70.20
2023-03-05T10:42:21.228Z,70.00
2023-03-05T10:44:52.910Z,70.70
2023-03-05T10:47:26.452Z,70.10
2023-03-05T10:49:57.177Z,68.40
2023-03-05T10:52:32.137Z,68.20
2023-03-05T10:54:59.958Z,67.90
2023-03-05T10:57:29.384Z,67.10
2023-03-05T11:00:02.798Z,68.60
2023-03-05T11:02:30.628Z,68.70
2023-03-05T11:04:59.984Z,67.10
2023-03-05T11:07:35.208Z,65.10
2023-03-05T11:10:06.918Z,65.70
2023-03-05T11:12:37.413Z,65.70
2023-03-05T11:15:22.641Z,65.20
2023-03-05T11:18:07.999Z,65.10
2023-03-05T11:20:39.834Z,62.50
2023-03-05T11:23:13.216Z,62.90
2023-03-05T11:26:03.114Z,64.10
2023-03-05T11:28:35.439Z,64.60
2023-03-05T11:31:08.427Z,62.90
2023-03-05T11:33:38.048Z,63.40
2023-03-05T11:36:21.792Z,63.30
2023-03-05T11:38:54.550Z,64.30
2023-03-05T11:41:28.327Z,63.80
2023-03-05T11:43:57.678Z,62.10
2023-03-05T11:46:26.804Z,62.60
2023-03-05T11:48:55.753Z,63.90
2023-03-05T11:51:31.846Z,63.40
2023-03-05T11:54:07.078Z,63.60
2023-03-05T11:56:39.253Z,64.60
2023-03-05T11:59:15.866Z,63.00
2023-03-05T12:01:46.590Z,60.80
2023-03-05T12:04:14.945Z,61.60
2023-03-05T12:06:48.066Z,60.90
2023-03-05T12:09:24.765Z,61.80
2023-03-05T12:11:58.895Z,61.60
2023-03-05T12:14:31.099Z,60.40
2023-03-05T12:17:08.802Z,60.60
2023-03-05T12:19:48.905Z,56.60
2023-03-05T12:22:21.936Z,56.90
2023-03-05T12:24:50.308Z,56.40
2023-03-05T12:27:33.390Z,58.10
2023-03-05T12:30:02.421Z,57.90
2023-03-05T12:33:00.818Z,58.20
2023-03-05T12:35:32.308Z,59.10
2023-03-05T12:38:29.063Z,59.20
2023-03-05T12:41:37.539Z,59.00
2023-03-05T12:44:26.173Z,57.20
2023-03-05T12:47:17.687Z,56.00
2023-03-05T12:49:48.289Z,57.10
2023-03-05T12:52:27.358Z,55.80
2023-03-05T12:55:04.704Z,57.60
2023-03-05T12:57:32.940Z,59.50
2023-03-05T13:00:05.506Z,56.60
2023-03-05T13:02:36.735Z,57.80
2023-03-05T13:05:08.643Z,58.70
2023-03-05T13:07:36.593Z,59.20
2023-03-05T13:10:06.573Z,57.60
2023-03-05T13:12:36.456Z,57.00
2023-03-05T13:15:05.790Z,55.00
2023-03-05T13:17:38.155Z,55.40
2023-03-05T13:20:27.419Z,56.10
2023-03-05T13:23:18.228Z,56.30
2023-03-05T13:25:59.618Z,55.30
2023-03-05T13:28:28.266Z,54.70
2023-03-05T13:30:58.943Z,54.50
2023-03-05T13:33:29.271Z,54.90
2023-03-05T13:35:57.465Z,54.70
2023-03-05T13:38:30.820Z,54.40
2023-03-05T13:41:19.464Z,54.10
2023-03-05T13:43:49.316Z,54.00
2023-03-05T13:46:25.748Z,54.40
2023-03-05T13:48:53.651Z,54.90
2023-03-05T13:51:21.426Z,56.10
2023-03-05T13:53:50.064Z,55.50
2023-03-05T13:56:21.168Z,55.20
2023-03-05T13:58:52.382Z,56.40
2023-03-05T14:01:30.132Z,56.20
2023-03-05T14:04:00.657Z,57.40
2023-03-05T14:06:30.858Z,57.30
2023-03-05T14:09:05.802Z,57.60
2023-03-05T14:11:35.583Z,57.60
2023-03-05T14:14:10.628Z,57.70
2023-03-05T14:16:38.478Z,57.80
2023-03-05T14:19:09.091Z,58.30
2023-03-05T14:21:48.151Z,57.90
2023-03-05T14:24:22.805Z,59.00
2023-03-05T14:26:56.486Z,59.40
2023-03-05T14:29:26.586Z,59.40
2023-03-05T14:31:56.507Z,58.70
2023-03-05T14:34:28.839Z,58.80
2023-03-05T14:36:59.739Z,58.80
2023-03-05T14:39:33.402Z,58.90
2023-03-05T14:42:30.821Z,59.20
2023-03-05T14:45:00.788Z,58.50
2023-03-05T14:47:29.556Z,58.90
2023-03-05T14:49:57.390Z,58.80
2023-03-05T14:52:26.605Z,59.10
2023-03-05T14:54:55.893Z,59.40
2023-03-05T14:57:27.388Z,59.70
2023-03-05T14:59:55.755Z,59.50
2023-03-05T15:02:25.952Z,59.90
2023-03-05T15:04:53.912Z,60.90
2023-03-05T15:07:24.585Z,61.10
2023-03-05T15:09:52.481Z,61.00
2023-03-05T15:12:24.459Z,60.20
2023-03-05T15:14:54.636Z,60.00
2023-03-05T15:17:26.857Z,60.40
2023-03-05T15:19:54.740Z,59.60
2023-03-05T15:22:22.512Z,59.90
2023-03-05T15:24:50.416Z,59.90
2023-03-05T15:27:18.250Z,59.90
2023-03-05T15:29:46.115Z,59.70
2023-03-05T15:32:15.290Z,60.60
2023-03-05T15:34:43.256Z,60.30
2023-03-05T15:37:11.189Z,60.00
2023-03-05T15:39:38.990Z,59.70
2023-03-05T15:42:07.102Z,59.40
2023-03-05T15:44:34.982Z,60.10
2023-03-05T15:47:02.791Z,59.50
2023-03-05T15:49:31.942Z,59.70
2023-03-05T15:51:59.982Z,59.70
2023-03-05T15:54:28.295Z,58.70
2023-03-05T15:56:56.129Z,59.80
2023-03-05T15:59:23.932Z,61.90
2023-03-05T16:01:53.317Z,63.20
2023-03-05T16:04:21.148Z,62.90
2023-03-05T16:06:51.376Z,62.80
2023-03-05T16:09:21.725Z,62.90
2023-03-05T16:11:51.417Z,63.40
2023-03-05T16:14:23.068Z,64.50
2023-03-05T16:16:51.720Z,66.20
2023-03-05T16:19:20.535Z,66.10
2023-03-05T16:21:50.082Z,66.50
2023-03-05T16:24:17.877Z,65.70
2023-03-05T16:26:45.940Z,65.50
2023-03-05T16:29:13.788Z,65.80
2023-03-05T16:31:43.258Z,66.20
2023-03-05T16:34:13.941Z,65.60
2023-03-05T16:36:42.406Z,66.00
2023-03-05T16:39:11.544Z,66.70
2023-03-05T16:41:39.384Z,67.50
2023-03-05T16:44:07.422Z,68.30
2023-03-05T16:46:35.383Z,69.60
2023-03-05T16:49:03.512Z,70.40
2023-03-05T16:51:31.361Z,70.70
2023-03-05T16:53:59.157Z,71.20
2023-03-05T16:56:28.348Z,71.40
2023-03-05T16:58:57.028Z,71.60
2023-03-05T17:01:25.409Z,71.70
2023-03-05T17:03:53.793Z,71.50
2023-03-05T17:06:24.454Z,72.00
2023-03-05T17:08:53.291Z,72.30
2023-03-05T17:11:21.694Z,71.60
2023-03-05T17:13:50.882Z,71.20
2023-03-05T17:16:20.042Z,71.60
2023-03-05T17:18:48.093Z,71.90
2023-03-05T17:21:16.609Z,72.20
2023-03-05T17:23:44.418Z,72.20
2023-03-05T17:26:14.224Z,72.30
2023-03-05T17:28:42.338Z,72.30
2023-03-05T17:31:12.671Z,72.10
2023-03-05T17:33:41.450Z,72.10
2023-03-05T17:36:14.698Z,72.10
2023-03-05T17:38:42.505Z,71.90
2023-03-05T17:41:10.431Z,72.20
2023-03-05T17:43:38.279Z,72.50
2023-03-05T17:46:06.907Z,72.60
2023-03-05T17:48:38.834Z,72.70
2023-03-05T17:51:07.392Z,72.80
2023-03-05T17:53:36.098Z,73.00
2023-03-05T17:56:07.748Z,73.00
2023-03-05T17:58:35.589Z,73.10
2023-03-05T18:01:03.797Z,73.10
2023-03-05T18:03:31.696Z,73.10
2023-03-05T18:06:01.021Z,73.20
2023-03-05T18:08:28.970Z,73.40
2023-03-05T18:11:02.108Z,73.60
2023-03-05T18:13:29.915Z,73.70
2023-03-05T18:15:59.511Z,73.90
2023-03-05T18:18:28.022Z,74.10
2023-03-05T18:20:56.109Z,73.90
2023-03-05T18:23:25.278Z,74.10
2023-03-05T18:25:53.128Z,74.70
2023-03-05T18:28:23.329Z,74.80
2023-03-05T18:30:51.209Z,75.40
2023-03-05T18:33:22.212Z,75.90
2023-03-05T18:35:52.338Z,76.70
2023-03-05T18:38:20.467Z,76.70
2023-03-05T18:40:51.269Z,76.80
2023-03-05T18:43:20.425Z,76.80
2023-03-05T18:45:48.901Z,76.60
2023-03-05T18:48:16.885Z,76.40
2023-03-05T18:50:45.061Z,76.00
2023-03-05T18:53:13.908Z,76.50
2023-03-05T18:55:42.795Z,76.80
2023-03-05T18:58:14.108Z,76.90
2023-03-05T19:00:43.697Z,76.90
2023-03-05T19:03:11.987Z,76.40
2023-03-05T19:05:40.256Z,76.60
2023-03-05T19:08:08.508Z,77.50
2023-03-05T19:10:36.393Z,77.80
2023-03-05T19:13:15.752Z,78.20
2023-03-05T19:15:45.135Z,78.20
2023-03-05T19:18:13.125Z,77.40
2023-03-05T19:20:41.002Z,77.40
2023-03-05T19:23:08.842Z,77.20
2023-03-05T19:25:36.720Z,77.10
2023-03-05T19:28:04.603Z,76.90
2023-03-05T19:30:32.612Z,76.70
2023-03-05T19:33:03.693Z,76.40
2023-03-05T19:35:31.577Z,76.50
2023-03-05T19:37:59.602Z,76.40
2023-03-05T19:40:27.628Z,76.70
2023-03-05T19:42:55.556Z,76.50
2023-03-05T19:45:23.368Z,76.50
2023-03-05T19:47:51.291Z,76.80
2023-03-05T19:50:20.728Z,76.90
2023-03-05T19:52:48.546Z,77.10
2023-03-05T19:55:16.480Z,77.80
2023-03-05T19:57:44.323Z,78.10
2023-03-05T20:00:13.288Z,78.70
2023-03-05T20:02:41.092Z,78.70
2023-03-05T20:05:09.708Z,78.50
2023-03-05T20:07:38.950Z,79.00
2023-03-05T20:10:07.691Z,78.70
2023-03-05T20:12:39.165Z,78.80
2023-03-05T20:15:07.816Z,78.10
2023-03-05T20:17:35.671Z,78.10
2023-03-05T20:20:03.532Z,78.00
2023-03-05T20:22:31.382Z,78.30
2023-03-05T20:25:00.572Z,78.90
2023-03-05T20:27:28.434Z,78.60
2023-03-05T20:29:56.270Z,78.90
2023-03-05T20:32:24.288Z,79.10
2023-03-05T20:34:52.147Z,79.30
2023-03-05T20:37:19.939Z,79.10
2023-03-05T20:39:47.774Z,78.90
2023-03-05T20:42:16.924Z,78.90
2023-03-05T20:44:45.200Z,78.80
2023-03-05T20:47:26.063Z,78.90
2023-03-05T20:49:55.743Z,78.80
2023-03-05T20:52:23.579Z,79.10
2023-03-05T20:54:51.415Z,78.90
2023-03-05T20:57:20.673Z,78.90
2023-03-05T20:59:48.475Z,78.90
2023-03-05T21:02:18.212Z,78.70
2023-03-05T21:04:46.137Z,78.80
2023-03-05T21:07:14.051Z,78.40
2023-03-05T21:09:41.852Z,78.60
2023-03-05T21:12:10.088Z,78.40
2023-03-05T21:14:40.711Z,78.60
2023-03-05T21:17:09.205Z,78.60
2023-03-05T21:19:38.876Z,78.50
2023-03-05T21:22:06.740Z,78.70
2023-03-05T21:24:45.530Z,78.70
2023-03-05T21:27:13.341Z,78.90
2023-03-05T21:29:42.606Z,79.40
2023-03-05T21:32:10.559Z,79.60
2023-03-05T21:34:38.361Z,79.50
2023-03-05T21:37:06.163Z,79.50
2023-03-05T21:39:33.965Z,79.40
2023-03-05T21:42:01.768Z,79.50
2023-03-05T21:44:29.589Z,79.70
2023-03-05T21:46:58.754Z,79.80
2023-03-05T21:49:26.570Z,79.80
2023-03-05T21:52:05.388Z,80.10
2023-03-05T21:54:33.220Z,80.30
2023-03-05T21:57:01.051Z,80.30
2023-03-05T21:59:29.102Z,80.20
2023-03-05T22:01:58.335Z,80.40
2023-03-05T22:04:26.501Z,80.40
2023-03-05T22:06:54.366Z,80.40
2023-03-05T22:09:22.160Z,80.40
2023-03-05T22:11:49.995Z,80.90
2023-03-05T22:14:18.138Z,81.00
2023-03-05T22:16:46.104Z,80.60
2023-03-05T22:19:15.260Z,80.30
2023-03-05T22:21:43.165Z,80.00
2023-03-05T22:24:10.995Z,80.00
2023-03-05T22:26:40.871Z,80.20
2023-03-05T22:29:11.584Z,80.40
2023-03-05T22:31:40.517Z,80.50
2023-03-05T22:34:08.360Z,81.00
2023-03-05T22:36:37.832Z,81.00
2023-03-05T22:39:05.946Z,81.40
2023-03-05T22:41:33.815Z,81.40
2023-03-05T22:44:01.618Z,81.40
2023-03-05T22:46:29.483Z,81.10
2023-03-05T22:48:57.359Z,80.80
2023-03-05T22:51:25.394Z,80.90
2023-03-05T22:53:54.584Z,80.90
2023-03-05T22:56:22.787Z,80.80
2023-03-05T22:58:50.637Z,80.80
2023-03-05T23:01:21.141Z,80.70
2023-03-05T23:03:53.207Z,80.70
2023-03-05T23:06:21.168Z,80.90
2023-03-05T23:08:49.134Z,80.90
2023-03-05T23:11:18.284Z,80.60
2023-03-05T23:13:46.332Z,80.70
2023-03-05T23:16:14.186Z,80.50
2023-03-05T23:18:42.058Z,80.80
2023-03-05T23:21:09.905Z,81.10
2023-03-05T23:23:38.093Z,80.60
2023-03-05T23:26:06.227Z,80.60
2023-03-05T23:28:35.410Z,80.80
2023-03-05T23:31:03.924Z,81.10
2023-03-05T23:33:31.781Z,81.70
2023-03-05T23:36:00.835Z,81.50
2023-03-05T23:38:30.371Z,81.80
2023-03-05T23:41:01.084Z,81.60
2023-03-05T23:43:29.968Z,80.90
2023-03-05T23:46:01.457Z,80.20
2023-03-05T23:48:30.341Z,79.10
2023-03-05T23:50:58.194Z,78.10
2023-03-05T23:53:28.726Z,77.30
2023-03-05T23:55:56.955Z,76.70
2023-03-05T23:58:24.856Z,76.30
